createdAt,value
2023-04-26T00:02:23.282Z,92.65
2023-04-26T00:04:58.302Z,92.61
2023-04-26T00:07:25.178Z,92.57
2023-04-26T00:09:52.221Z,92.64
2023-04-26T00:12:18.826Z,92.64
2023-04-26T00:14:45.378Z,92.46
2023-04-26T00:17:11.739Z,92.47
2023-04-26T00:19:39.163Z,92.46
2023-04-26T00:22:05.997Z,92.53
2023-04-26T00:24:32.405Z,92.55
2023-04-26T00:27:00.028Z,92.48
2023-04-26T00:29:26.742Z,92.51
2023-04-26T00:31:54.215Z,92.52
2023-04-26T00:34:20.641Z,92.48
2023-04-26T00:36:47.162Z,92.44
2023-04-26T00:39:13.455Z,92.38
2023-04-26T00:41:39.841Z,92.46
2023-04-26T00:44:06.202Z,92.40
2023-04-26T00:46:32.702Z,92.36
2023-04-26T00:48:59.116Z,92.32
2023-04-26T00:51:26.500Z,92.22
2023-04-26T00:53:53.188Z,92.06
2023-04-26T00:56:20.493Z,91.69
2023-04-26T00:58:46.949Z,91.48
2023-04-26T01:01:13.324Z,91.51
2023-04-26T01:03:40.002Z,91.60
2023-04-26T01:06:06.629Z,91.59
2023-04-26T01:08:33.146Z,91.56
2023-04-26T01:10:59.812Z,91.71
2023-04-26T01:13:26.886Z,91.79
2023-04-26T01:15:55.488Z,91.82
2023-04-26T01:18:22.683Z,91.91
2023-04-26T01:20:49.375Z,92.00
2023-04-26T01:23:16.613Z,92.03
2023-04-26T01:25:42.931Z,92.11
2023-04-26T01:28:09.359Z,92.18
2023-04-26T01:30:35.744Z,92.13
2023-04-26T01:33:02.070Z,92.09
2023-04-26T01:35:28.472Z,92.15
2023-04-26T01:37:54.910Z,92.10
2023-04-26T01:40:21.386Z,92.06
2023-04-26T01:42:47.855Z,92.12
2023-04-26T01:45:17.465Z,92.11
2023-04-26T01:47:43.902Z,92.14
2023-04-26T01:50:10.582Z,92.22
2023-04-26T01:52:36.978Z,92.23
2023-04-26T01:55:03.478Z,92.21
2023-04-26T01:57:29.795Z,92.19
2023-04-26T01:59:56.165Z,92.22
2023-04-26T02:02:22.504Z,92.31
2023-04-26T02:04:48.985Z,92.21
2023-04-26T02:07:15.359Z,92.29
2023-04-26T02:09:41.748Z,92.38
2023-04-26T02:12:08.143Z,92.46
2023-04-26T02:14:34.588Z,92.40
2023-04-26T02:17:00.918Z,92.34
2023-04-26T02:19:27.370Z,92.38
2023-04-26T02:21:56.487Z,92.36
2023-04-26T02:24:24.115Z,92.33
2023-04-26T02:26:53.992Z,92.28
2023-04-26T02:29:29.503Z,92.25
2023-04-26T02:32:07.274Z,92.30
2023-04-26T02:34:33.687Z,92.26
2023-04-26T02:37:00.236Z,92.26
2023-04-26T02:39:26.754Z,92.29
2023-04-26T02:41:53.105Z,92.31
2023-04-26T02:44:19.463Z,92.35
2023-04-26T02:46:47.384Z,92.38
2023-04-26T02:49:13.741Z,92.44
2023-04-26T02:51:40.639Z,92.54
2023-04-26T02:54:07.669Z,92.57
2023-04-26T02:56:35.345Z,92.63
2023-04-26T02:59:01.665Z,92.62
2023-04-26T03:01:28.023Z,92.67
2023-04-26T03:03:54.437Z,92.77
2023-04-26T03:06:20.856Z,92.81
2023-04-26T03:08:47.219Z,92.86
2023-04-26T03:11:13.620Z,92.86
2023-04-26T03:13:40.025Z,92.86
2023-04-26T03:16:06.825Z,92.75
2023-04-26T03:18:33.187Z,92.60
2023-04-26T03:20:59.566Z,92.58
2023-04-26T03:23:26.094Z,92.57
2023-04-26T03:25:52.593Z,92.59
2023-04-26T03:28:19.052Z,92.59
2023-04-26T03:30:45.431Z,92.50
2023-04-26T03:33:13.057Z,92.47
2023-04-26T03:35:42.494Z,92.44
2023-04-26T03:38:08.994Z,92.37
2023-04-26T03:40:35.949Z,92.34
2023-04-26T03:43:02.929Z,92.24
2023-04-26T03:45:29.334Z,92.20
2023-04-26T03:47:56.138Z,92.23
2023-04-26T03:50:22.516Z,92.07
2023-04-26T03:52:49.029Z,92.01
2023-04-26T03:55:15.358Z,91.70
2023-04-26T03:57:41.847Z,91.40
2023-04-26T04:00:13.185Z,90.96
2023-04-26T04:02:40.578Z,90.30
2023-04-26T04:05:07.914Z,89.78
2023-04-26T04:07:34.652Z,89.33
2023-04-26T04:10:01.621Z,89.12
2023-04-26T04:12:28.033Z,89.05
2023-04-26T04:14:54.365Z,88.61
2023-04-26T04:17:20.865Z,88.37
2023-04-26T04:19:47.248Z,88.43
2023-04-26T04:22:13.606Z,88.02
2023-04-26T04:24:41.436Z,87.19
2023-04-26T04:27:08.253Z,87.25
2023-04-26T04:29:34.727Z,87.22
2023-04-26T04:32:01.590Z,86.67
2023-04-26T04:34:27.958Z,86.51
2023-04-26T04:36:54.474Z,87.10
2023-04-26T04:39:20.918Z,87.06
2023-04-26T04:41:48.339Z,86.76
2023-04-26T04:44:15.761Z,85.94
2023-04-26T04:46:42.950Z,85.54
2023-04-26T04:49:11.747Z,85.25
2023-04-26T04:51:38.683Z,84.32
2023-04-26T04:54:18.057Z,83.07
2023-04-26T04:56:45.789Z,83.57
2023-04-26T04:59:12.382Z,82.13
2023-04-26T05:01:39.070Z,82.92
2023-04-26T05:04:06.963Z,82.98
2023-04-26T05:06:33.594Z,82.94
2023-04-26T05:09:00.984Z,82.57
2023-04-26T05:11:27.581Z,82.19
2023-04-26T05:13:54.160Z,82.66
2023-04-26T05:16:21.032Z,82.12
2023-04-26T05:18:47.472Z,83.07
2023-04-26T05:21:13.839Z,83.45
2023-04-26T05:23:40.281Z,82.63
2023-04-26T05:26:10.720Z,81.25
2023-04-26T05:28:37.218Z,82.15
2023-04-26T05:31:05.061Z,79.78
2023-04-26T05:33:31.685Z,73.03
2023-04-26T05:35:58.474Z,71.57
2023-04-26T05:38:30.602Z,70.61
2023-04-26T05:40:56.933Z,73.52
2023-04-26T05:43:23.307Z,72.97
2023-04-26T05:45:51.332Z,73.76
2023-04-26T05:48:17.926Z,73.23
2023-04-26T05:50:44.330Z,73.80
2023-04-26T05:53:10.699Z,73.65
2023-04-26T05:55:37.201Z,74.37
2023-04-26T05:58:04.659Z,75.58
2023-04-26T06:00:32.102Z,76.34
2023-04-26T06:02:58.575Z,77.43
2023-04-26T06:05:25.338Z,77.12
2023-04-26T06:07:53.176Z,77.45
2023-04-26T06:10:20.217Z,77.80
2023-04-26T06:12:46.773Z,77.88
2023-04-26T06:15:13.616Z,77.85
2023-04-26T06:17:41.055Z,78.49
2023-04-26T06:20:11.683Z,77.22
2023-04-26T06:22:38.147Z,75.10
2023-04-26T06:25:07.515Z,73.43
2023-04-26T06:27:33.946Z,70.71
2023-04-26T06:30:00.378Z,67.97
2023-04-26T06:32:27.076Z,66.62
2023-04-26T06:34:54.332Z,63.40
2023-04-26T06:37:20.802Z,59.18
2023-04-26T06:39:47.431Z,60.89
2023-04-26T06:42:13.675Z,59.98
2023-04-26T06:44:39.947Z,59.94
2023-04-26T06:47:08.803Z,58.03
2023-04-26T06:49:35.317Z,55.02
2023-04-26T06:52:02.435Z,57.47
2023-04-26T06:54:30.257Z,59.22
2023-04-26T06:56:56.615Z,58.41
2023-04-26T06:59:23.278Z,56.67
2023-04-26T07:01:51.053Z,54.85
2023-04-26T07:04:21.873Z,55.57
2023-04-26T07:06:49.228Z,56.21
2023-04-26T07:09:15.594Z,56.36
2023-04-26T07:11:41.887Z,54.26
2023-04-26T07:14:09.927Z,53.79
2023-04-26T07:16:36.335Z,54.89
2023-04-26T07:19:02.797Z,53.71
2023-04-26T07:21:29.188Z,53.12
2023-04-26T07:23:56.335Z,52.56
2023-04-26T07:26:23.518Z,50.60
2023-04-26T07:28:53.540Z,51.26
2023-04-26T07:31:20.220Z,47.45
2023-04-26T07:33:46.796Z,47.50
2023-04-26T07:36:13.215Z,48.89
2023-04-26T07:38:39.896Z,48.45
2023-04-26T07:41:06.407Z,49.03
2023-04-26T07:43:33.168Z,46.32
2023-04-26T07:46:01.468Z,47.17
2023-04-26T07:48:28.106Z,45.98
2023-04-26T07:50:55.228Z,45.44
2023-04-26T07:53:25.185Z,46.47
2023-04-26T07:55:51.688Z,47.29
2023-04-26T07:58:18.875Z,49.76
2023-04-26T08:00:45.348Z,49.96
2023-04-26T08:03:15.373Z,49.25
2023-04-26T08:05:42.223Z,48.97
2023-04-26T08:08:08.814Z,46.79
2023-04-26T08:10:35.935Z,47.17
2023-04-26T08:13:02.863Z,48.10
2023-04-26T08:15:31.367Z,48.88
2023-04-26T08:17:57.885Z,46.96
2023-04-26T08:20:24.413Z,46.41
2023-04-26T08:22:59.928Z,47.51
2023-04-26T08:25:26.527Z,48.08
2023-04-26T08:27:52.881Z,48.93
2023-04-26T08:30:19.414Z,48.03
2023-04-26T08:32:46.418Z,49.27
2023-04-26T08:35:12.852Z,50.97
2023-04-26T08:37:39.112Z,51.42
2023-04-26T08:40:09.798Z,50.13
2023-04-26T08:42:41.538Z,48.05
2023-04-26T08:45:08.598Z,48.39
2023-04-26T08:47:47.984Z,47.99
2023-04-26T08:50:16.237Z,44.71
2023-04-26T08:52:44.229Z,45.44
2023-04-26T08:55:12.472Z,46.43
2023-04-26T08:57:43.063Z,47.30
2023-04-26T09:00:12.886Z,46.78
2023-04-26T09:02:46.676Z,49.30
2023-04-26T09:05:13.477Z,51.32
2023-04-26T09:07:45.272Z,52.24
2023-04-26T09:10:13.209Z,51.85
2023-04-26T09:12:40.218Z,48.77
2023-04-26T09:15:07.033Z,46.37
2023-04-26T09:17:36.430Z,47.41
2023-04-26T09:20:24.596Z,49.81
2023-04-26T09:23:08.269Z,48.86
2023-04-26T09:25:35.772Z,48.80
2023-04-26T09:28:17.794Z,48.88
2023-04-26T09:30:44.378Z,49.55
2023-04-26T09:33:10.816Z,51.60
2023-04-26T09:35:39.065Z,50.98
2023-04-26T09:38:14.671Z,49.69
2023-04-26T09:40:46.644Z,49.72
2023-04-26T09:43:21.427Z,52.12
2023-04-26T09:45:53.510Z,51.63
2023-04-26T09:48:21.778Z,52.04
2023-04-26T09:50:51.645Z,51.70
2023-04-26T09:53:38.395Z,49.82
2023-04-26T09:56:08.624Z,49.59
2023-04-26T09:58:39.999Z,49.66
2023-04-26T10:01:11.060Z,49.78
2023-04-26T10:03:37.830Z,49.82
2023-04-26T10:06:05.077Z,48.13
2023-04-26T10:08:34.589Z,47.87
2023-04-26T10:11:04.663Z,48.89
2023-04-26T10:13:34.802Z,49.02
2023-04-26T10:16:02.889Z,49.54
2023-04-26T10:18:30.905Z,49.15
2023-04-26T10:21:01.651Z,49.07
2023-04-26T10:23:28.647Z,49.05
2023-04-26T10:25:55.869Z,49.82
2023-04-26T10:28:43.562Z,50.06
2023-04-26T10:31:10.171Z,47.64
2023-04-26T10:33:37.077Z,48.70
2023-04-26T10:36:11.571Z,48.99
2023-04-26T10:38:40.756Z,48.08
2023-04-26T10:41:36.843Z,47.99
2023-04-26T10:44:35.724Z,46.07
2023-04-26T10:47:04.618Z,44.71
2023-04-26T10:49:45.050Z,43.27
2023-04-26T10:52:14.476Z,43.35
2023-04-26T10:54:51.556Z,44.81
2023-04-26T10:57:21.498Z,45.53
2023-04-26T11:00:16.061Z,44.90
2023-04-26T11:02:52.853Z,44.42
2023-04-26T11:05:32.670Z,43.95
2023-04-26T11:08:17.124Z,44.46
2023-04-26T11:10:51.317Z,45.07
2023-04-26T11:13:18.967Z,46.13
2023-04-26T11:15:46.840Z,44.73
2023-04-26T11:18:13.228Z,44.13
2023-04-26T11:20:39.727Z,43.56
2023-04-26T11:23:08.305Z,44.48
2023-04-26T11:25:34.883Z,42.08
2023-04-26T11:28:02.547Z,42.43
2023-04-26T11:30:31.023Z,43.03
2023-04-26T11:33:03.450Z,44.01
2023-04-26T11:35:33.853Z,45.11
2023-04-26T11:38:00.872Z,44.91
2023-04-26T11:40:32.447Z,45.94
2023-04-26T11:43:00.774Z,47.39
2023-04-26T11:45:27.435Z,45.91
2023-04-26T11:47:54.658Z,44.51
2023-04-26T11:50:26.107Z,44.89
2023-04-26T11:52:56.590Z,42.64
2023-04-26T11:55:27.289Z,39.52
2023-04-26T11:57:54.207Z,39.98
2023-04-26T12:00:21.123Z,38.57
2023-04-26T12:02:51.561Z,38.99
2023-04-26T12:05:21.997Z,39.11
2023-04-26T12:07:56.940Z,40.84
2023-04-26T12:10:25.372Z,40.94
2023-04-26T12:12:53.254Z,42.63
2023-04-26T12:15:23.452Z,43.91
2023-04-26T12:18:14.379Z,44.38
2023-04-26T12:20:42.793Z,45.07
2023-04-26T12:23:16.765Z,44.91
2023-04-26T12:25:59.906Z,45.15
2023-04-26T12:28:26.312Z,44.92
2023-04-26T12:30:52.733Z,46.19
2023-04-26T12:33:32.295Z,44.58
2023-04-26T12:36:12.054Z,45.55
2023-04-26T12:38:39.247Z,44.90
2023-04-26T12:41:07.256Z,44.73
2023-04-26T12:43:33.915Z,45.37
2023-04-26T12:46:01.079Z,47.42
2023-04-26T12:48:28.386Z,47.79
2023-04-26T12:50:56.183Z,46.99
2023-04-26T12:53:25.271Z,45.91
2023-04-26T12:55:51.860Z,43.82
2023-04-26T12:58:18.354Z,44.39
2023-04-26T13:00:44.904Z,43.70
2023-04-26T13:03:13.865Z,44.76
2023-04-26T13:05:40.842Z,44.34
2023-04-26T13:08:28.716Z,45.55
2023-04-26T13:10:59.227Z,45.32
2023-04-26T13:13:39.823Z,45.44
2023-04-26T13:16:14.343Z,44.64
2023-04-26T13:18:42.158Z,44.32
2023-04-26T13:21:09.932Z,45.26
2023-04-26T13:23:37.671Z,45.36
2023-04-26T13:26:05.484Z,46.85
2023-04-26T13:28:36.430Z,46.74
2023-04-26T13:31:04.360Z,44.68
2023-04-26T13:33:33.065Z,44.03
2023-04-26T13:36:25.739Z,43.60
2023-04-26T13:38:49.517Z,42.85
2023-04-26T13:41:17.292Z,42.66
2023-04-26T13:43:45.106Z,42.69
2023-04-26T13:46:13.623Z,42.86
2023-04-26T13:48:44.309Z,43.52
2023-04-26T13:51:12.117Z,45.00
2023-04-26T13:53:39.870Z,45.62
2023-04-26T13:56:09.726Z,44.29
2023-04-26T13:58:37.541Z,45.19
2023-04-26T14:01:05.299Z,44.81
2023-04-26T14:03:33.957Z,45.24
2023-04-26T14:06:03.553Z,45.43
2023-04-26T14:08:31.393Z,45.57
2023-04-26T14:10:59.566Z,44.97
2023-04-26T14:13:27.297Z,44.28
2023-04-26T14:15:55.861Z,43.16
2023-04-26T14:18:23.611Z,42.79
2023-04-26T14:20:51.708Z,43.84
2023-04-26T14:23:21.882Z,43.81
2023-04-26T14:25:53.644Z,44.07
2023-04-26T14:28:21.481Z,45.15
2023-04-26T14:30:49.236Z,44.71
2023-04-26T14:33:18.011Z,45.49
2023-04-26T14:35:46.364Z,45.35
2023-04-26T14:38:14.645Z,45.89
2023-04-26T14:40:44.222Z,47.35
2023-04-26T14:43:11.958Z,48.36
2023-04-26T14:45:44.523Z,47.96
2023-04-26T14:48:12.965Z,47.47
2023-04-26T14:50:40.885Z,47.06
2023-04-26T14:53:09.772Z,46.92
2023-04-26T14:55:37.760Z,46.88
2023-04-26T14:58:05.695Z,47.27
2023-04-26T15:00:33.352Z,46.68
2023-04-26T15:03:01.543Z,45.47
2023-04-26T15:05:29.472Z,45.14
2023-04-26T15:07:57.162Z,45.21
2023-04-26T15:10:24.978Z,45.81
2023-04-26T15:12:52.715Z,47.03
2023-04-26T15:15:20.468Z,48.13
2023-04-26T15:17:48.242Z,48.47
2023-04-26T15:20:16.110Z,48.60
2023-04-26T15:22:44.451Z,48.20
2023-04-26T15:25:12.934Z,49.56
2023-04-26T15:27:41.409Z,49.26
2023-04-26T15:30:09.521Z,48.54
2023-04-26T15:32:37.260Z,49.22
2023-04-26T15:35:07.354Z,48.00
2023-04-26T15:37:37.196Z,49.11
2023-04-26T15:40:06.364Z,49.53
2023-04-26T15:42:34.107Z,49.03
2023-04-26T15:45:02.813Z,49.03
2023-04-26T15:47:30.635Z,49.17
2023-04-26T15:50:03.735Z,50.01
2023-04-26T15:52:39.485Z,49.98
2023-04-26T15:55:07.915Z,49.12
2023-04-26T15:57:36.096Z,48.24
2023-04-26T16:00:08.481Z,48.66
2023-04-26T16:02:37.359Z,49.41
2023-04-26T16:05:08.185Z,50.11
2023-04-26T16:07:38.881Z,48.15
2023-04-26T16:10:09.728Z,48.30
2023-04-26T16:12:39.594Z,48.03
2023-04-26T16:15:09.469Z,48.49
2023-04-26T16:17:38.271Z,49.15
2023-04-26T16:20:07.275Z,48.64
2023-04-26T16:22:35.904Z,48.59
2023-04-26T16:25:06.816Z,48.24
2023-04-26T16:27:35.415Z,48.88
2023-04-26T16:30:03.908Z,48.86
2023-04-26T16:32:31.881Z,48.56
2023-04-26T16:34:59.767Z,49.98
2023-04-26T16:37:27.531Z,49.72
2023-04-26T16:39:58.351Z,49.45
2023-04-26T16:42:26.422Z,50.21
2023-04-26T16:44:55.914Z,51.14
2023-04-26T16:47:23.534Z,50.53
2023-04-26T16:49:51.692Z,49.91
2023-04-26T16:52:19.706Z,50.73
2023-04-26T16:54:47.423Z,50.11
2023-04-26T16:57:15.172Z,50.33
2023-04-26T16:59:42.877Z,51.54
2023-04-26T17:02:10.509Z,52.86
2023-04-26T17:04:38.556Z,50.70
2023-04-26T17:07:06.675Z,51.14
2023-04-26T17:09:35.249Z,51.98
2023-04-26T17:12:04.474Z,51.33
2023-04-26T17:14:32.610Z,50.72
2023-04-26T17:17:00.574Z,51.52
2023-04-26T17:28:01.522Z,52.24
2023-04-26T17:30:29.330Z,51.64
2023-04-26T17:32:57.052Z,51.30
2023-04-26T17:35:24.975Z,51.29
2023-04-26T17:37:52.928Z,51.69
2023-04-26T17:40:20.722Z,51.84
2023-04-26T17:42:48.481Z,52.15
2023-04-26T17:45:16.199Z,52.37
2023-04-26T17:47:45.653Z,52.11
2023-04-26T17:50:13.632Z,52.07
2023-04-26T17:52:41.840Z,52.27
2023-04-26T17:55:10.187Z,52.76
2023-04-26T17:57:37.917Z,52.38
2023-04-26T18:00:10.288Z,53.12
2023-04-26T18:02:38.563Z,53.22
2023-04-26T18:05:08.586Z,53.84
2023-04-26T18:07:36.416Z,52.62
2023-04-26T18:10:04.532Z,52.73
2023-04-26T18:12:32.397Z,53.00
2023-04-26T18:15:00.142Z,52.88
2023-04-26T18:17:28.155Z,52.89
2023-04-26T18:19:56.532Z,52.68
2023-04-26T18:22:24.233Z,52.59
2023-04-26T18:24:52.114Z,52.58
2023-04-26T18:27:19.779Z,52.46
2023-04-26T18:29:49.087Z,52.40
2023-04-26T18:32:16.847Z,52.43
2023-04-26T18:34:44.627Z,52.82
2023-04-26T18:37:12.458Z,52.89
2023-04-26T18:39:40.381Z,52.64
2023-04-26T18:42:08.211Z,52.63
2023-04-26T18:44:36.152Z,52.80
2023-04-26T18:47:03.982Z,52.81
2023-04-26T18:49:32.197Z,52.79
2023-04-26T18:52:00.078Z,52.93
2023-04-26T18:54:27.957Z,52.60
2023-04-26T18:56:56.228Z,52.54
2023-04-26T18:59:23.902Z,53.11
2023-04-26T19:01:53.132Z,53.05
2023-04-26T19:08:36.186Z,52.29
2023-04-26T19:11:04.074Z,52.20
2023-04-26T19:13:32.963Z,52.55
2023-04-26T19:16:02.531Z,52.48
2023-04-26T19:18:33.463Z,52.67
2023-04-26T19:21:05.387Z,53.14
2023-04-26T19:23:33.830Z,53.11
2023-04-26T19:26:05.708Z,53.23
2023-04-26T19:28:33.901Z,53.50
2023-04-26T19:31:01.987Z,53.71
2023-04-26T19:33:30.245Z,53.84
2023-04-26T19:35:58.581Z,54.14
2023-04-26T19:38:26.326Z,53.78
2023-04-26T19:40:54.086Z,53.57
2023-04-26T19:43:22.004Z,53.99
2023-04-26T19:45:50.660Z,54.52
2023-04-26T19:48:19.033Z,54.74
2023-04-26T19:50:47.190Z,54.84
2023-04-26T19:53:17.538Z,54.94
2023-04-26T19:55:45.390Z,55.55
2023-04-26T19:58:13.113Z,55.57
2023-04-26T20:00:41.042Z,55.54
2023-04-26T20:03:09.014Z,55.25
2023-04-26T20:05:36.824Z,54.98
2023-04-26T20:08:04.745Z,54.73
2023-04-26T20:10:34.228Z,54.80
2023-04-26T20:13:02.605Z,55.28
2023-04-26T20:15:33.834Z,55.39
2023-04-26T20:18:02.400Z,55.50
2023-04-26T20:20:30.732Z,55.91
2023-04-26T20:22:58.636Z,56.18
2023-04-26T20:25:29.848Z,56.16
2023-04-26T20:32:17.868Z,57.10
2023-04-26T20:34:45.715Z,57.29
2023-04-26T20:37:13.889Z,57.57
2023-04-26T20:39:41.698Z,57.89
2023-04-26T20:42:09.646Z,57.98
2023-04-26T20:44:37.436Z,58.19
2023-04-26T20:47:05.126Z,58.54
2023-04-26T20:49:32.818Z,58.35
2023-04-26T20:56:14.493Z,58.46
2023-04-26T20:58:42.252Z,58.72
2023-04-26T21:01:11.446Z,58.66
2023-04-26T21:03:39.461Z,58.55
2023-04-26T21:06:08.075Z,58.50
2023-04-26T21:08:36.898Z,58.55
2023-04-26T21:11:05.224Z,58.58
2023-04-26T21:13:32.936Z,58.93
2023-04-26T21:16:02.285Z,59.12
2023-04-26T21:18:30.347Z,59.34
2023-04-26T21:20:58.220Z,59.46
2023-04-26T21:23:26.436Z,59.57
2023-04-26T21:25:54.062Z,59.89
2023-04-26T21:28:22.344Z,60.10
2023-04-26T21:30:50.186Z,60.55
2023-04-26T21:33:17.998Z,60.61
2023-04-26T21:35:46.147Z,60.84
2023-04-26T21:38:13.758Z,60.98
2023-04-26T21:40:41.484Z,61.48
2023-04-26T21:43:11.140Z,62.40
2023-04-26T21:45:38.761Z,61.98
2023-04-26T21:48:06.454Z,62.41
2023-04-26T21:50:34.143Z,62.38
2023-04-26T21:53:01.874Z,62.67
2023-04-26T21:55:29.489Z,62.78
2023-04-26T21:57:57.140Z,62.83
2023-04-26T22:00:27.246Z,63.22
2023-04-26T22:02:55.287Z,63.56
2023-04-26T22:05:25.848Z,63.72
2023-04-26T22:07:54.714Z,64.08
2023-04-26T22:10:22.368Z,64.24
2023-04-26T22:12:50.600Z,64.39
2023-04-26T22:15:18.290Z,64.65
2023-04-26T22:22:12.808Z,64.91
2023-04-26T22:24:40.693Z,65.07
2023-04-26T22:27:08.563Z,65.01
2023-04-26T22:29:36.382Z,65.03
2023-04-26T22:32:04.154Z,65.14
2023-04-26T22:34:31.885Z,65.12
2023-04-26T22:37:12.963Z,65.21
2023-04-26T22:39:47.706Z,65.46
2023-04-26T22:42:15.782Z,65.52
2023-04-26T22:44:43.488Z,65.50
2023-04-26T22:47:11.201Z,65.84
2023-04-26T22:49:38.821Z,66.10
2023-04-26T22:52:12.079Z,66.33
2023-04-26T22:54:45.009Z,66.56
2023-04-26T22:57:12.723Z,66.91
2023-04-26T22:59:40.421Z,67.30
2023-04-26T23:02:08.288Z,67.64
2023-04-26T23:04:36.125Z,67.91
2023-04-26T23:11:27.922Z,68.33
2023-04-26T23:13:56.340Z,68.58
2023-04-26T23:16:24.844Z,68.99
2023-04-26T23:19:46.184Z,69.18
2023-04-26T23:22:15.555Z,69.26
2023-04-26T23:24:43.363Z,69.54
2023-04-26T23:27:11.090Z,69.89
2023-04-26T23:29:38.838Z,70.12
2023-04-26T23:36:27.815Z,70.70
2023-04-26T23:38:56.412Z,70.97
2023-04-26T23:41:24.077Z,71.14
2023-04-26T23:43:51.769Z,71.32
2023-04-26T23:46:19.567Z,71.54
2023-04-26T23:48:47.282Z,72.01
2023-04-26T23:51:14.889Z,72.09
2023-04-26T23:53:42.629Z,72.15
2023-04-26T23:56:10.558Z,72.44
2023-04-26T23:58:38.342Z,72.76
